sensor_id;sensor_type;location;lat;lon;timestamp;temperature;humidity
47626;DHT22;33342;45.574;9.252;2023-06-05T00:00:03;20.70;99.90
47626;DHT22;33342;45.574;9.252;2023-06-05T00:02:38;20.60;99.90
47626;DHT22;33342;45.574;9.252;2023-06-05T00:05:05;20.70;99.90
47626;DHT22;33342;45.574;9.252;2023-06-05T00:07:36;20.60;99.90
47626;DHT22;33342;45.574;9.252;2023-06-05T00:10:07;20.60;99.90
47626;DHT22;33342;45.574;9.252;2023-06-05T00:12:36;20.60;99.90
47626;DHT22;33342;45.574;9.252;2023-06-05T00:15:04;20.60;99.90
47626;DHT22;33342;45.574;9.252;2023-06-05T00:17:32;20.60;99.90
47626;DHT22;33342;45.574;9.252;2023-06-05T00:20:00;20.60;99.90
47626;DHT22;33342;45.574;9.252;2023-06-05T00:22:27;20.60;99.90
47626;DHT22;33342;45.574;9.252;2023-06-05T00:24:55;20.60;99.90
47626;DHT22;33342;45.574;9.252;2023-06-05T00:27:22;20.50;99.90
47626;DHT22;33342;45.574;9.252;2023-06-05T00:29:50;20.60;99.90
47626;DHT22;33342;45.574;9.252;2023-06-05T00:32:17;20.50;99.90
47626;DHT22;33342;45.574;9.252;2023-06-05T00:34:44;20.50;99.90
47626;DHT22;33342;45.574;9.252;2023-06-05T00:37:11;20.50;99.90
47626;DHT22;33342;45.574;9.252;2023-06-05T00:39:40;20.50;99.90
47626;DHT22;33342;45.574;9.252;2023-06-05T00:42:08;20.50;99.90
47626;DHT22;33342;45.574;9.252;2023-06-05T00:44:39;20.50;99.90
47626;DHT22;33342;45.574;9.252;2023-06-05T00:47:07;20.50;99.90
47626;DHT22;33342;45.574;9.252;2023-06-05T00:49:34;20.60;99.90
47626;DHT22;33342;45.574;9.252;2023-06-05T00:52:02;20.60;99.90
47626;DHT22;33342;45.574;9.252;2023-06-05T00:54:29;20.60;99.90
47626;DHT22;33342;45.574;9.252;2023-06-05T00:56:56;20.60;99.90
47626;DHT22;33342;45.574;9.252;2023-06-05T00:59:24;20.60;99.90
47626;DHT22;33342;45.574;9.252;2023-06-05T01:01:51;20.60;99.90
47626;DHT22;33342;45.574;9.252;2023-06-05T01:04:19;20.50;99.90
47626;DHT22;33342;45.574;9.252;2023-06-05T01:06:46;20.50;99.90
47626;DHT22;33342;45.574;9.252;2023-06-05T01:09:13;20.50;99.90
47626;DHT22;33342;45.574;9.252;2023-06-05T01:11:53;20.40;99.90
47626;DHT22;33342;45.574;9.252;2023-06-05T01:14:22;20.40;99.90
47626;DHT22;33342;45.574;9.252;2023-06-05T01:16:51;20.40;99.90
47626;DHT22;33342;45.574;9.252;2023-06-05T01:19:24;20.40;99.90
47626;DHT22;33342;45.574;9.252;2023-06-05T01:21:56;20.40;99.90
47626;DHT22;33342;45.574;9.252;2023-06-05T01:24:23;20.40;99.90
47626;DHT22;33342;45.574;9.252;2023-06-05T01:32:43;20.40;99.90
47626;DHT22;33342;45.574;9.252;2023-06-05T01:35:14;20.50;99.90
47626;DHT22;33342;45.574;9.252;2023-06-05T01:37:47;20.50;99.90
47626;DHT22;33342;45.574;9.252;2023-06-05T01:40:19;20.50;99.90
47626;DHT22;33342;45.574;9.252;2023-06-05T01:42:48;20.50;99.90
47626;DHT22;33342;45.574;9.252;2023-06-05T01:45:16;20.50;99.90
47626;DHT22;33342;45.574;9.252;2023-06-05T01:47:44;20.50;99.90
47626;DHT22;33342;45.574;9.252;2023-06-05T01:50:17;20.50;99.90
47626;DHT22;33342;45.574;9.252;2023-06-05T01:52:45;20.50;99.90
47626;DHT22;33342;45.574;9.252;2023-06-05T01:55:17;20.40;99.90
47626;DHT22;33342;45.574;9.252;2023-06-05T01:57:45;20.40;99.90
47626;DHT22;33342;45.574;9.252;2023-06-05T02:00:13;20.40;99.90
47626;DHT22;33342;45.574;9.252;2023-06-05T02:02:46;20.30;99.90
47626;DHT22;33342;45.574;9.252;2023-06-05T02:05:16;20.30;99.90
47626;DHT22;33342;45.574;9.252;2023-06-05T02:07:48;20.30;99.90
47626;DHT22;33342;45.574;9.252;2023-06-05T02:10:20;20.30;99.90
47626;DHT22;33342;45.574;9.252;2023-06-05T02:12:48;20.30;99.90
47626;DHT22;33342;45.574;9.252;2023-06-05T02:15:16;20.30;99.90
47626;DHT22;33342;45.574;9.252;2023-06-05T02:17:44;20.30;99.90
47626;DHT22;33342;45.574;9.252;2023-06-05T02:20:12;20.30;99.90
47626;DHT22;33342;45.574;9.252;2023-06-05T02:22:42;20.30;99.90
47626;DHT22;33342;45.574;9.252;2023-06-05T02:25:11;20.30;99.90
47626;DHT22;33342;45.574;9.252;2023-06-05T02:27:39;20.30;99.90
47626;DHT22;33342;45.574;9.252;2023-06-05T02:30:08;20.30;99.90
47626;DHT22;33342;45.574;9.252;2023-06-05T02:32:36;20.30;99.90
47626;DHT22;33342;45.574;9.252;2023-06-05T02:35:04;20.20;99.90
47626;DHT22;33342;45.574;9.252;2023-06-05T02:37:32;20.20;99.90
47626;DHT22;33342;45.574;9.252;2023-06-05T02:40:05;20.20;99.90
47626;DHT22;33342;45.574;9.252;2023-06-05T02:42:35;20.20;99.90
47626;DHT22;33342;45.574;9.252;2023-06-05T02:45:03;20.20;99.90
47626;DHT22;33342;45.574;9.252;2023-06-05T02:47:31;20.20;99.90
47626;DHT22;33342;45.574;9.252;2023-06-05T02:50:00;20.20;99.90
47626;DHT22;33342;45.574;9.252;2023-06-05T02:52:31;20.20;99.90
47626;DHT22;33342;45.574;9.252;2023-06-05T02:55:08;20.20;99.90
47626;DHT22;33342;45.574;9.252;2023-06-05T02:57:36;20.20;99.90
47626;DHT22;33342;45.574;9.252;2023-06-05T03:00:13;20.20;99.90
47626;DHT22;33342;45.574;9.252;2023-06-05T03:02:49;20.10;99.90
47626;DHT22;33342;45.574;9.252;2023-06-05T03:05:20;20.10;99.90
47626;DHT22;33342;45.574;9.252;2023-06-05T03:07:55;20.10;99.90
47626;DHT22;33342;45.574;9.252;2023-06-05T03:10:23;20.10;99.90
47626;DHT22;33342;45.574;9.252;2023-06-05T03:12:51;20.10;99.90
47626;DHT22;33342;45.574;9.252;2023-06-05T03:15:18;20.10;99.90
47626;DHT22;33342;45.574;9.252;2023-06-05T03:17:48;20.10;99.90
47626;DHT22;33342;45.574;9.252;2023-06-05T03:20:18;20.00;99.90
47626;DHT22;33342;45.574;9.252;2023-06-05T03:22:46;20.10;99.90
47626;DHT22;33342;45.574;9.252;2023-06-05T03:25:14;20.10;99.90
47626;DHT22;33342;45.574;9.252;2023-06-05T03:27:43;20.10;99.90
47626;DHT22;33342;45.574;9.252;2023-06-05T03:30:12;20.10;99.90
47626;DHT22;33342;45.574;9.252;2023-06-05T03:32:47;20.10;99.90
47626;DHT22;33342;45.574;9.252;2023-06-05T03:35:15;20.10;99.90
47626;DHT22;33342;45.574;9.252;2023-06-05T03:37:42;20.10;99.90
47626;DHT22;33342;45.574;9.252;2023-06-05T03:40:11;20.10;99.90
47626;DHT22;33342;45.574;9.252;2023-06-05T03:42:40;20.10;99.90
47626;DHT22;33342;45.574;9.252;2023-06-05T03:45:07;20.10;99.90
47626;DHT22;33342;45.574;9.252;2023-06-05T03:47:37;20.10;99.90
47626;DHT22;33342;45.574;9.252;2023-06-05T03:50:07;20.10;99.90
47626;DHT22;33342;45.574;9.252;2023-06-05T03:52:38;20.10;99.90
47626;DHT22;33342;45.574;9.252;2023-06-05T03:55:07;20.10;99.90
47626;DHT22;33342;45.574;9.252;2023-06-05T03:57:37;20.10;99.90
47626;DHT22;33342;45.574;9.252;2023-06-05T04:00:11;20.10;99.90
47626;DHT22;33342;45.574;9.252;2023-06-05T04:02:55;20.10;99.90
47626;DHT22;33342;45.574;9.252;2023-06-05T04:05:24;20.10;99.90
47626;DHT22;33342;45.574;9.252;2023-06-05T04:07:52;20.10;99.90
47626;DHT22;33342;45.574;9.252;2023-06-05T04:10:19;20.10;99.90
47626;DHT22;33342;45.574;9.252;2023-06-05T04:12:46;20.20;99.90
47626;DHT22;33342;45.574;9.252;2023-06-05T04:15:14;20.20;99.90
47626;DHT22;33342;45.574;9.252;2023-06-05T04:17:42;20.20;99.90
47626;DHT22;33342;45.574;9.252;2023-06-05T04:20:10;20.30;99.90
47626;DHT22;33342;45.574;9.252;2023-06-05T04:22:42;20.30;99.90
47626;DHT22;33342;45.574;9.252;2023-06-05T04:25:09;20.30;99.90
47626;DHT22;33342;45.574;9.252;2023-06-05T04:27:42;20.30;99.90
47626;DHT22;33342;45.574;9.252;2023-06-05T04:30:11;20.40;99.90
47626;DHT22;33342;45.574;9.252;2023-06-05T04:32:40;20.40;99.90
47626;DHT22;33342;45.574;9.252;2023-06-05T04:35:09;20.40;99.90
47626;DHT22;33342;45.574;9.252;2023-06-05T04:37:38;20.50;99.90
47626;DHT22;33342;45.574;9.252;2023-06-05T04:40:06;20.50;99.90
47626;DHT22;33342;45.574;9.252;2023-06-05T04:42:36;20.50;99.90
47626;DHT22;33342;45.574;9.252;2023-06-05T04:45:06;20.50;99.90
47626;DHT22;33342;45.574;9.252;2023-06-05T04:47:37;20.50;99.90
47626;DHT22;33342;45.574;9.252;2023-06-05T04:50:05;20.50;99.90
47626;DHT22;33342;45.574;9.252;2023-06-05T04:52:36;20.50;99.90
47626;DHT22;33342;45.574;9.252;2023-06-05T04:55:07;20.60;99.90
47626;DHT22;33342;45.574;9.252;2023-06-05T04:57:35;20.60;99.90
47626;DHT22;33342;45.574;9.252;2023-06-05T05:00:05;20.60;99.90
47626;DHT22;33342;45.574;9.252;2023-06-05T05:02:33;20.60;99.90
47626;DHT22;33342;45.574;9.252;2023-06-05T05:05:01;20.60;99.90
47626;DHT22;33342;45.574;9.252;2023-06-05T05:07:28;20.70;99.90
47626;DHT22;33342;45.574;9.252;2023-06-05T05:09:56;20.70;99.90
47626;DHT22;33342;45.574;9.252;2023-06-05T05:12:23;20.70;99.90
47626;DHT22;33342;45.574;9.252;2023-06-05T05:14:51;20.70;99.90
47626;DHT22;33342;45.574;9.252;2023-06-05T05:17:18;20.80;99.90
47626;DHT22;33342;45.574;9.252;2023-06-05T05:19:47;20.80;99.90
47626;DHT22;33342;45.574;9.252;2023-06-05T05:22:14;20.80;99.90
47626;DHT22;33342;45.574;9.252;2023-06-05T05:24:41;20.80;99.90
47626;DHT22;33342;45.574;9.252;2023-06-05T05:27:08;20.80;99.90
47626;DHT22;33342;45.574;9.252;2023-06-05T05:29:36;20.80;99.90
47626;DHT22;33342;45.574;9.252;2023-06-05T05:32:04;20.80;99.90
47626;DHT22;33342;45.574;9.252;2023-06-05T05:34:32;20.80;99.90
47626;DHT22;33342;45.574;9.252;2023-06-05T05:37:01;20.90;99.90
47626;DHT22;33342;45.574;9.252;2023-06-05T05:39:28;20.90;99.90
47626;DHT22;33342;45.574;9.252;2023-06-05T05:41:55;20.90;99.90
47626;DHT22;33342;45.574;9.252;2023-06-05T05:44:23;20.90;99.90
47626;DHT22;33342;45.574;9.252;2023-06-05T05:46:50;20.90;99.90
47626;DHT22;33342;45.574;9.252;2023-06-05T05:49:17;20.90;99.90
47626;DHT22;33342;45.574;9.252;2023-06-05T05:51:44;20.90;99.90
47626;DHT22;33342;45.574;9.252;2023-06-05T05:54:12;20.90;99.90
47626;DHT22;33342;45.574;9.252;2023-06-05T05:56:39;20.90;99.90
47626;DHT22;33342;45.574;9.252;2023-06-05T05:59:06;20.90;99.90
47626;DHT22;33342;45.574;9.252;2023-06-05T06:01:33;21.00;99.90
47626;DHT22;33342;45.574;9.252;2023-06-05T06:04:00;21.00;99.90
47626;DHT22;33342;45.574;9.252;2023-06-05T06:06:27;21.00;99.90
47626;DHT22;33342;45.574;9.252;2023-06-05T06:08:55;21.00;99.90
47626;DHT22;33342;45.574;9.252;2023-06-05T06:11:22;21.00;99.90
47626;DHT22;33342;45.574;9.252;2023-06-05T06:13:50;21.00;99.90
47626;DHT22;33342;45.574;9.252;2023-06-05T06:16:17;21.10;99.90
47626;DHT22;33342;45.574;9.252;2023-06-05T06:18:44;21.10;99.90
47626;DHT22;33342;45.574;9.252;2023-06-05T06:21:12;21.10;99.90
47626;DHT22;33342;45.574;9.252;2023-06-05T06:23:40;21.10;99.90
47626;DHT22;33342;45.574;9.252;2023-06-05T06:26:07;21.10;99.90
47626;DHT22;33342;45.574;9.252;2023-06-05T06:28:35;21.20;99.90
47626;DHT22;33342;45.574;9.252;2023-06-05T06:31:02;21.20;99.90
47626;DHT22;33342;45.574;9.252;2023-06-05T06:33:29;21.20;99.90
47626;DHT22;33342;45.574;9.252;2023-06-05T06:35:56;21.20;99.90
47626;DHT22;33342;45.574;9.252;2023-06-05T06:38:25;21.20;99.90
47626;DHT22;33342;45.574;9.252;2023-06-05T06:40:57;21.20;99.90
47626;DHT22;33342;45.574;9.252;2023-06-05T06:43:25;21.20;99.90
47626;DHT22;33342;45.574;9.252;2023-06-05T06:46:04;21.20;99.90
47626;DHT22;33342;45.574;9.252;2023-06-05T06:48:32;21.20;99.90
47626;DHT22;33342;45.574;9.252;2023-06-05T06:51:00;21.20;99.90
47626;DHT22;33342;45.574;9.252;2023-06-05T06:53:27;21.20;99.90
47626;DHT22;33342;45.574;9.252;2023-06-05T06:55:54;21.20;99.90
47626;DHT22;33342;45.574;9.252;2023-06-05T06:58:22;21.30;99.90
47626;DHT22;33342;45.574;9.252;2023-06-05T07:00:50;21.30;99.90
47626;DHT22;33342;45.574;9.252;2023-06-05T07:03:18;21.40;99.90
47626;DHT22;33342;45.574;9.252;2023-06-05T07:05:45;21.40;99.90
47626;DHT22;33342;45.574;9.252;2023-06-05T07:08:12;21.40;99.90
47626;DHT22;33342;45.574;9.252;2023-06-05T07:10:39;21.50;99.90
47626;DHT22;33342;45.574;9.252;2023-06-05T07:13:07;21.50;99.90
47626;DHT22;33342;45.574;9.252;2023-06-05T07:15:34;21.50;99.90
47626;DHT22;33342;45.574;9.252;2023-06-05T07:18:02;21.50;99.90
47626;DHT22;33342;45.574;9.252;2023-06-05T07:20:31;21.60;99.90
47626;DHT22;33342;45.574;9.252;2023-06-05T07:23:00;21.60;99.90
47626;DHT22;33342;45.574;9.252;2023-06-05T07:25:27;21.70;99.90
47626;DHT22;33342;45.574;9.252;2023-06-05T07:27:55;21.70;99.90
47626;DHT22;33342;45.574;9.252;2023-06-05T07:30:22;21.70;99.90
47626;DHT22;33342;45.574;9.252;2023-06-05T07:32:49;21.80;99.90
47626;DHT22;33342;45.574;9.252;2023-06-05T07:35:17;21.80;99.90
47626;DHT22;33342;45.574;9.252;2023-06-05T07:37:44;21.80;99.90
47626;DHT22;33342;45.574;9.252;2023-06-05T07:40:12;21.90;99.90
47626;DHT22;33342;45.574;9.252;2023-06-05T07:42:39;21.90;99.90
47626;DHT22;33342;45.574;9.252;2023-06-05T07:45:06;21.90;99.90
47626;DHT22;33342;45.574;9.252;2023-06-05T07:47:34;22.00;99.90
47626;DHT22;33342;45.574;9.252;2023-06-05T07:50:02;22.00;99.90
47626;DHT22;33342;45.574;9.252;2023-06-05T07:52:33;22.00;99.90
47626;DHT22;33342;45.574;9.252;2023-06-05T07:55:00;22.00;99.90
47626;DHT22;33342;45.574;9.252;2023-06-05T07:57:27;22.10;99.90
47626;DHT22;33342;45.574;9.252;2023-06-05T07:59:55;22.10;99.90
47626;DHT22;33342;45.574;9.252;2023-06-05T08:02:23;22.20;99.90
47626;DHT22;33342;45.574;9.252;2023-06-05T08:04:50;22.20;99.90
47626;DHT22;33342;45.574;9.252;2023-06-05T08:07:18;22.20;99.90
47626;DHT22;33342;45.574;9.252;2023-06-05T08:09:45;22.30;99.90
47626;DHT22;33342;45.574;9.252;2023-06-05T08:12:12;22.40;99.90
47626;DHT22;33342;45.574;9.252;2023-06-05T08:14:39;22.40;99.90
47626;DHT22;33342;45.574;9.252;2023-06-05T08:17:06;22.50;99.90
47626;DHT22;33342;45.574;9.252;2023-06-05T08:19:34;22.50;99.90
47626;DHT22;33342;45.574;9.252;2023-06-05T08:22:01;22.60;99.90
47626;DHT22;33342;45.574;9.252;2023-06-05T08:24:30;22.60;99.90
47626;DHT22;33342;45.574;9.252;2023-06-05T08:26:57;22.60;99.90
47626;DHT22;33342;45.574;9.252;2023-06-05T08:29:27;22.70;99.90
47626;DHT22;33342;45.574;9.252;2023-06-05T08:31:54;22.70;99.90
47626;DHT22;33342;45.574;9.252;2023-06-05T08:34:22;22.70;99.90
47626;DHT22;33342;45.574;9.252;2023-06-05T08:36:51;22.70;99.90
47626;DHT22;33342;45.574;9.252;2023-06-05T08:39:18;22.70;99.90
47626;DHT22;33342;45.574;9.252;2023-06-05T08:41:50;22.70;99.90
47626;DHT22;33342;45.574;9.252;2023-06-05T08:44:18;22.70;99.90
47626;DHT22;33342;45.574;9.252;2023-06-05T08:46:45;22.80;99.90
47626;DHT22;33342;45.574;9.252;2023-06-05T08:49:17;22.80;99.90
47626;DHT22;33342;45.574;9.252;2023-06-05T08:51:44;22.80;99.90
47626;DHT22;33342;45.574;9.252;2023-06-05T08:54:12;22.80;99.90
47626;DHT22;33342;45.574;9.252;2023-06-05T08:56:42;22.90;99.90
47626;DHT22;33342;45.574;9.252;2023-06-05T08:59:11;22.90;99.90
47626;DHT22;33342;45.574;9.252;2023-06-05T09:01:42;22.90;99.90
47626;DHT22;33342;45.574;9.252;2023-06-05T09:04:11;23.00;99.90
47626;DHT22;33342;45.574;9.252;2023-06-05T09:06:38;23.10;99.90
47626;DHT22;33342;45.574;9.252;2023-06-05T09:09:08;23.10;99.90
47626;DHT22;33342;45.574;9.252;2023-06-05T09:11:36;23.10;99.90
47626;DHT22;33342;45.574;9.252;2023-06-05T09:14:05;23.20;99.90
47626;DHT22;33342;45.574;9.252;2023-06-05T09:16:37;23.20;99.90
47626;DHT22;33342;45.574;9.252;2023-06-05T09:19:05;23.30;99.90
47626;DHT22;33342;45.574;9.252;2023-06-05T09:21:33;23.40;99.90
47626;DHT22;33342;45.574;9.252;2023-06-05T09:24:14;23.40;99.90
47626;DHT22;33342;45.574;9.252;2023-06-05T09:26:59;23.50;99.90
47626;DHT22;33342;45.574;9.252;2023-06-05T09:29:27;23.60;99.90
47626;DHT22;33342;45.574;9.252;2023-06-05T09:31:59;23.60;99.90
47626;DHT22;33342;45.574;9.252;2023-06-05T09:34:30;23.60;99.90
47626;DHT22;33342;45.574;9.252;2023-06-05T09:37:02;23.60;99.90
47626;DHT22;33342;45.574;9.252;2023-06-05T09:39:31;23.60;99.90
47626;DHT22;33342;45.574;9.252;2023-06-05T09:41:59;23.60;99.90
47626;DHT22;33342;45.574;9.252;2023-06-05T09:44:27;23.60;99.90
47626;DHT22;33342;45.574;9.252;2023-06-05T09:47:00;23.60;99.90
47626;DHT22;33342;45.574;9.252;2023-06-05T09:49:53;23.60;99.90
47626;DHT22;33342;45.574;9.252;2023-06-05T09:52:19;23.70;99.90
47626;DHT22;33342;45.574;9.252;2023-06-05T09:54:47;23.70;99.90
47626;DHT22;33342;45.574;9.252;2023-06-05T09:57:15;23.80;99.90
47626;DHT22;33342;45.574;9.252;2023-06-05T09:59:55;23.90;99.90
47626;DHT22;33342;45.574;9.252;2023-06-05T10:02:35;23.90;99.90
47626;DHT22;33342;45.574;9.252;2023-06-05T10:05:04;24.00;99.90
47626;DHT22;33342;45.574;9.252;2023-06-05T10:07:32;24.10;99.90
47626;DHT22;33342;45.574;9.252;2023-06-05T10:10:02;24.20;99.90
47626;DHT22;33342;45.574;9.252;2023-06-05T10:12:30;24.30;99.90
47626;DHT22;33342;45.574;9.252;2023-06-05T10:14:58;24.30;99.90
47626;DHT22;33342;45.574;9.252;2023-06-05T10:17:25;24.30;99.90
47626;DHT22;33342;45.574;9.252;2023-06-05T10:19:54;24.40;99.90
47626;DHT22;33342;45.574;9.252;2023-06-05T10:22:23;24.50;99.90
47626;DHT22;33342;45.574;9.252;2023-06-05T10:25:00;24.50;99.90
47626;DHT22;33342;45.574;9.252;2023-06-05T10:33:57;24.30;99.90
47626;DHT22;33342;45.574;9.252;2023-06-05T10:39:11;24.30;99.90
47626;DHT22;33342;45.574;9.252;2023-06-05T10:41:39;24.30;99.90
47626;DHT22;33342;45.574;9.252;2023-06-05T10:44:06;24.30;99.90
47626;DHT22;33342;45.574;9.252;2023-06-05T10:46:37;24.30;99.90
47626;DHT22;33342;45.574;9.252;2023-06-05T10:51:45;24.30;99.90
47626;DHT22;33342;45.574;9.252;2023-06-05T11:07:29;24.20;99.90
47626;DHT22;33342;45.574;9.252;2023-06-05T11:15:04;24.30;99.90
47626;DHT22;33342;45.574;9.252;2023-06-05T11:17:33;24.30;99.90
47626;DHT22;33342;45.574;9.252;2023-06-05T11:20:05;24.30;99.90
47626;DHT22;33342;45.574;9.252;2023-06-05T11:22:32;24.40;99.90
47626;DHT22;33342;45.574;9.252;2023-06-05T11:27:56;24.50;99.90
47626;DHT22;33342;45.574;9.252;2023-06-05T11:30:28;24.50;99.90
47626;DHT22;33342;45.574;9.252;2023-06-05T11:33:18;24.50;99.90
47626;DHT22;33342;45.574;9.252;2023-06-05T11:35:49;24.60;99.90
47626;DHT22;33342;45.574;9.252;2023-06-05T11:38:21;24.70;99.90
47626;DHT22;33342;45.574;9.252;2023-06-05T11:40:53;24.70;99.90
47626;DHT22;33342;45.574;9.252;2023-06-05T11:43:21;24.80;99.90
47626;DHT22;33342;45.574;9.252;2023-06-05T11:48:18;25.00;99.90
47626;DHT22;33342;45.574;9.252;2023-06-05T11:51:04;25.10;99.90
47626;DHT22;33342;45.574;9.252;2023-06-05T11:53:35;25.10;99.90
47626;DHT22;33342;45.574;9.252;2023-06-05T11:56:12;25.00;99.90
47626;DHT22;33342;45.574;9.252;2023-06-05T11:58:41;25.00;99.90
47626;DHT22;33342;45.574;9.252;2023-06-05T12:01:16;25.10;99.90
47626;DHT22;33342;45.574;9.252;2023-06-05T12:04:02;25.10;99.90
47626;DHT22;33342;45.574;9.252;2023-06-05T12:06:31;25.30;99.90
47626;DHT22;33342;45.574;9.252;2023-06-05T12:09:12;25.40;99.90
47626;DHT22;33342;45.574;9.252;2023-06-05T12:11:42;25.40;99.90
47626;DHT22;33342;45.574;9.252;2023-06-05T12:14:12;25.40;99.90
47626;DHT22;33342;45.574;9.252;2023-06-05T12:16:41;25.40;99.90
47626;DHT22;33342;45.574;9.252;2023-06-05T12:19:18;25.40;99.90
47626;DHT22;33342;45.574;9.252;2023-06-05T12:21:47;25.30;99.90
47626;DHT22;33342;45.574;9.252;2023-06-05T12:24:15;25.20;99.90
47626;DHT22;33342;45.574;9.252;2023-06-05T12:26:58;25.10;99.90
47626;DHT22;33342;45.574;9.252;2023-06-05T12:29:30;25.00;99.90
47626;DHT22;33342;45.574;9.252;2023-06-05T12:31:59;24.90;99.90
47626;DHT22;33342;45.574;9.252;2023-06-05T12:34:47;24.90;99.90
47626;DHT22;33342;45.574;9.252;2023-06-05T12:37:30;24.80;99.90
47626;DHT22;33342;45.574;9.252;2023-06-05T12:40:00;24.80;99.90
47626;DHT22;33342;45.574;9.252;2023-06-05T12:42:33;24.80;99.90
47626;DHT22;33342;45.574;9.252;2023-06-05T12:45:03;24.70;99.90
47626;DHT22;33342;45.574;9.252;2023-06-05T12:47:32;24.70;99.90
47626;DHT22;33342;45.574;9.252;2023-06-05T12:50:00;24.70;99.90
47626;DHT22;33342;45.574;9.252;2023-06-05T12:52:28;24.60;99.90
47626;DHT22;33342;45.574;9.252;2023-06-05T12:54:56;24.60;99.90
47626;DHT22;33342;45.574;9.252;2023-06-05T12:57:24;24.60;99.90
47626;DHT22;33342;45.574;9.252;2023-06-05T12:59:53;24.60;99.90
47626;DHT22;33342;45.574;9.252;2023-06-05T13:02:21;24.50;99.90
47626;DHT22;33342;45.574;9.252;2023-06-05T13:04:48;24.50;99.90
47626;DHT22;33342;45.574;9.252;2023-06-05T13:07:16;24.50;99.90
47626;DHT22;33342;45.574;9.252;2023-06-05T13:09:48;24.50;99.90
47626;DHT22;33342;45.574;9.252;2023-06-05T13:12:19;24.50;99.90
47626;DHT22;33342;45.574;9.252;2023-06-05T13:14:46;24.50;99.90
47626;DHT22;33342;45.574;9.252;2023-06-05T13:17:13;24.50;99.90
47626;DHT22;33342;45.574;9.252;2023-06-05T13:19:41;24.50;99.90
47626;DHT22;33342;45.574;9.252;2023-06-05T13:22:08;24.50;99.90
47626;DHT22;33342;45.574;9.252;2023-06-05T13:24:35;24.50;99.90
47626;DHT22;33342;45.574;9.252;2023-06-05T13:27:02;24.50;99.90
47626;DHT22;33342;45.574;9.252;2023-06-05T13:29:31;24.60;99.90
47626;DHT22;33342;45.574;9.252;2023-06-05T13:31:59;24.60;99.90
47626;DHT22;33342;45.574;9.252;2023-06-05T13:34:26;24.60;99.90
47626;DHT22;33342;45.574;9.252;2023-06-05T13:36:56;24.70;99.90
47626;DHT22;33342;45.574;9.252;2023-06-05T13:39:36;24.70;99.90
47626;DHT22;33342;45.574;9.252;2023-06-05T13:42:03;24.70;99.90
47626;DHT22;33342;45.574;9.252;2023-06-05T13:44:30;24.70;99.90
47626;DHT22;33342;45.574;9.252;2023-06-05T13:46:58;24.70;99.90
47626;DHT22;33342;45.574;9.252;2023-06-05T13:49:31;24.80;99.90
47626;DHT22;33342;45.574;9.252;2023-06-05T13:51:58;24.80;99.90
47626;DHT22;33342;45.574;9.252;2023-06-05T13:54:25;24.90;99.90
47626;DHT22;33342;45.574;9.252;2023-06-05T13:56:53;24.90;99.90
47626;DHT22;33342;45.574;9.252;2023-06-05T13:59:20;25.10;99.90
47626;DHT22;33342;45.574;9.252;2023-06-05T14:01:47;25.10;99.90
47626;DHT22;33342;45.574;9.252;2023-06-05T14:04:15;25.20;99.90
47626;DHT22;33342;45.574;9.252;2023-06-05T14:06:42;25.30;99.90
47626;DHT22;33342;45.574;9.252;2023-06-05T14:09:09;25.40;99.90
47626;DHT22;33342;45.574;9.252;2023-06-05T14:11:36;25.40;99.90
47626;DHT22;33342;45.574;9.252;2023-06-05T14:14:05;25.40;99.90
47626;DHT22;33342;45.574;9.252;2023-06-05T14:16:32;25.40;99.90
47626;DHT22;33342;45.574;9.252;2023-06-05T14:19:00;25.50;99.90
47626;DHT22;33342;45.574;9.252;2023-06-05T14:21:27;25.50;99.90
47626;DHT22;33342;45.574;9.252;2023-06-05T14:23:54;25.60;99.90
47626;DHT22;33342;45.574;9.252;2023-06-05T14:26:22;25.60;99.90
47626;DHT22;33342;45.574;9.252;2023-06-05T14:28:49;25.60;99.90
47626;DHT22;33342;45.574;9.252;2023-06-05T14:31:16;25.70;99.90
47626;DHT22;33342;45.574;9.252;2023-06-05T14:33:43;25.70;99.90
47626;DHT22;33342;45.574;9.252;2023-06-05T14:36:10;25.70;99.90
47626;DHT22;33342;45.574;9.252;2023-06-05T14:38:38;25.80;99.90
47626;DHT22;33342;45.574;9.252;2023-06-05T14:41:05;25.90;99.90
47626;DHT22;33342;45.574;9.252;2023-06-05T14:43:32;25.90;99.90
47626;DHT22;33342;45.574;9.252;2023-06-05T14:45:59;26.00;99.90
47626;DHT22;33342;45.574;9.252;2023-06-05T14:48:27;26.00;99.90
47626;DHT22;33342;45.574;9.252;2023-06-05T14:50:55;26.10;99.90
47626;DHT22;33342;45.574;9.252;2023-06-05T14:53:24;26.20;99.90
47626;DHT22;33342;45.574;9.252;2023-06-05T14:55:51;26.20;99.90
47626;DHT22;33342;45.574;9.252;2023-06-05T14:58:18;26.30;99.90
47626;DHT22;33342;45.574;9.252;2023-06-05T15:00:46;26.30;99.90
47626;DHT22;33342;45.574;9.252;2023-06-05T15:03:13;26.40;99.90
47626;DHT22;33342;45.574;9.252;2023-06-05T15:05:40;26.50;99.90
47626;DHT22;33342;45.574;9.252;2023-06-05T15:08:08;26.60;99.90
47626;DHT22;33342;45.574;9.252;2023-06-05T15:10:37;26.70;99.90
47626;DHT22;33342;45.574;9.252;2023-06-05T15:13:04;26.80;99.90
47626;DHT22;33342;45.574;9.252;2023-06-05T15:15:33;26.90;99.90
47626;DHT22;33342;45.574;9.252;2023-06-05T15:18:00;27.10;99.90
47626;DHT22;33342;45.574;9.252;2023-06-05T15:20:28;27.30;99.90
47626;DHT22;33342;45.574;9.252;2023-06-05T15:22:55;27.50;99.90
47626;DHT22;33342;45.574;9.252;2023-06-05T15:25:41;27.70;99.90
47626;DHT22;33342;45.574;9.252;2023-06-05T15:28:09;28.10;99.90
47626;DHT22;33342;45.574;9.252;2023-06-05T15:30:36;28.40;99.90
47626;DHT22;33342;45.574;9.252;2023-06-05T15:33:03;28.60;99.90
47626;DHT22;33342;45.574;9.252;2023-06-05T15:35:30;28.80;99.90
47626;DHT22;33342;45.574;9.252;2023-06-05T15:37:58;28.80;99.90
47626;DHT22;33342;45.574;9.252;2023-06-05T15:40:25;28.70;99.90
47626;DHT22;33342;45.574;9.252;2023-06-05T15:43:07;28.60;99.90
47626;DHT22;33342;45.574;9.252;2023-06-05T15:45:35;28.40;99.90
47626;DHT22;33342;45.574;9.252;2023-06-05T15:48:03;28.30;99.90
47626;DHT22;33342;45.574;9.252;2023-06-05T15:50:31;28.10;99.90
47626;DHT22;33342;45.574;9.252;2023-06-05T15:52:59;27.90;99.90
47626;DHT22;33342;45.574;9.252;2023-06-05T15:55:26;27.80;99.90
47626;DHT22;33342;45.574;9.252;2023-06-05T15:57:53;27.60;99.90
47626;DHT22;33342;45.574;9.252;2023-06-05T16:00:21;27.40;99.90
47626;DHT22;33342;45.574;9.252;2023-06-05T16:02:53;27.30;99.90
47626;DHT22;33342;45.574;9.252;2023-06-05T16:05:21;27.10;99.90
47626;DHT22;33342;45.574;9.252;2023-06-05T16:07:48;27.00;99.90
47626;DHT22;33342;45.574;9.252;2023-06-05T16:10:16;26.70;99.90
47626;DHT22;33342;45.574;9.252;2023-06-05T16:12:44;26.60;99.90
47626;DHT22;33342;45.574;9.252;2023-06-05T16:15:12;26.50;99.90
47626;DHT22;33342;45.574;9.252;2023-06-05T16:17:41;26.40;99.90
47626;DHT22;33342;45.574;9.252;2023-06-05T16:20:09;26.20;99.90
47626;DHT22;33342;45.574;9.252;2023-06-05T16:22:36;26.10;99.90